Time;durP1;ratioP1;P1;durP2;ratioP2;P2;SDS_P1;SDS_P2;PMS_P1;PMS_P2;Temp;Humidity;BMP_temperature;BMP_pressure;BME280_temperature;BME280_humidity;BME280_pressure;Samples;Min_cycle;Max_cycle;Signal;HPM_P1;HPM_P2
2021/10/20 00:01:43;;;;;;;23.80;13.15;;;14.90;66.30;;;;;;5032622;28;20128;-69
2021/10/20 00:04:09;;;;;;;19.80;14.18;;;14.90;65.90;;;;;;5032584;28;20037;-71
2021/10/20 00:06:36;;;;;;;18.45;13.82;;;14.90;66.20;;;;;;5032791;28;20028;-73
2021/10/20 00:09:02;;;;;;;18.48;13.48;;;14.90;66.10;;;;;;5032734;28;20132;-73
2021/10/20 00:11:27;;;;;;;18.25;12.40;;;14.90;65.90;;;;;;5032382;28;20449;-70
2021/10/20 00:13:54;;;;;;;20.05;12.85;;;14.80;66.00;;;;;;5032497;28;20053;-71
2021/10/20 00:16:19;;;;;;;20.85;12.82;;;14.80;66.00;;;;;;5032733;28;20429;-70
2021/10/20 00:18:48;;;;;;;17.70;12.50;;;14.80;66.10;;;;;;5032731;28;20477;-72
2021/10/20 00:21:24;;;;;;;18.85;11.85;;;14.80;65.90;;;;;;5032228;28;20057;-71
2021/10/20 00:23:49;;;;;;;21.75;12.02;;;14.80;65.80;;;;;;5032295;28;20042;-70
2021/10/20 00:26:15;;;;;;;17.58;11.95;;;14.70;65.80;;;;;;5032292;28;20088;-69
2021/10/20 00:28:41;;;;;;;18.20;11.15;;;14.70;65.70;;;;;;5032345;28;20466;-69
2021/10/20 00:31:07;;;;;;;14.93;10.35;;;14.70;65.60;;;;;;5032613;28;20022;-68
2021/10/20 00:33:32;;;;;;;15.32;11.20;;;14.70;65.50;;;;;;5032377;28;20038;-71
2021/10/20 00:35:58;;;;;;;16.73;11.05;;;14.60;65.50;;;;;;5032248;28;20025;-68
2021/10/20 00:38:24;;;;;;;18.98;10.82;;;14.60;65.60;;;;;;5032234;28;20036;-71
2021/10/20 00:40:51;;;;;;;17.73;11.10;;;14.60;65.70;;;;;;5032185;28;20034;-69
2021/10/20 00:43:21;;;;;;;15.32;9.95;;;14.50;65.80;;;;;;5035725;28;20080;-69
2021/10/20 00:45:46;;;;;;;16.92;10.57;;;14.50;65.70;;;;;;5018064;28;20030;-69
2021/10/20 00:48:13;;;;;;;21.10;10.77;;;14.50;66.00;;;;;;5035949;28;20085;-69
2021/10/20 00:50:38;;;;;;;20.08;10.30;;;14.40;65.70;;;;;;5035879;28;20462;-68
2021/10/20 00:53:04;;;;;;;14.90;9.68;;;14.40;65.90;;;;;;5035997;28;20028;-67
2021/10/20 00:55:30;;;;;;;18.98;10.43;;;14.30;65.90;;;;;;5035943;28;20029;-69
2021/10/20 00:57:56;;;;;;;15.85;11.13;;;14.20;66.00;;;;;;5017755;28;20021;-69
2021/10/20 01:00:22;;;;;;;17.98;10.43;;;14.30;65.90;;;;;;5035756;28;20030;-69
2021/10/20 01:02:48;;;;;;;17.38;11.77;;;14.30;66.30;;;;;;5035635;28;20030;-69
2021/10/20 01:05:14;;;;;;;16.52;11.35;;;14.30;65.80;;;;;;5035586;28;20052;-69
2021/10/20 01:07:40;;;;;;;20.90;12.45;;;14.20;65.60;;;;;;5035574;28;20402;-68
2021/10/20 01:10:09;;;;;;;16.70;11.52;;;14.20;65.60;;;;;;5035917;28;20030;-68
2021/10/20 01:12:36;;;;;;;17.80;11.35;;;14.10;65.50;;;;;;5017581;28;20138;-68
2021/10/20 01:15:23;;;;;;;17.73;11.27;;;14.10;65.50;;;;;;5035718;28;20029;-71
2021/10/20 01:17:49;;;;;;;14.68;10.18;;;14.00;65.40;;;;;;5035712;28;20032;-70
2021/10/20 01:20:17;;;;;;;14.98;10.95;;;14.00;65.60;;;;;;5035704;28;20112;-69
2021/10/20 01:22:43;;;;;;;17.35;10.93;;;14.00;65.50;;;;;;5035187;28;20053;-68
2021/10/20 01:25:09;;;;;;;13.93;10.10;;;14.00;65.80;;;;;;5016932;22;20514;-74
2021/10/20 01:27:35;;;;;;;14.52;11.00;;;14.00;65.90;;;;;;4995574;28;20069;-76
2021/10/20 01:30:03;;;;;;;15.88;10.27;;;13.90;65.90;;;;;;4995480;28;20050;-74
2021/10/20 01:32:29;;;;;;;14.77;10.70;;;13.90;66.00;;;;;;4995453;28;20037;-74
2021/10/20 01:34:55;;;;;;;14.25;10.15;;;13.90;66.00;;;;;;4995483;28;20421;-74
2021/10/20 01:37:23;;;;;;;16.83;10.52;;;13.90;66.10;;;;;;4995543;28;20018;-74
2021/10/20 01:39:49;;;;;;;14.20;9.88;;;13.90;66.20;;;;;;4995346;28;20030;-76
2021/10/20 01:42:15;;;;;;;16.48;9.73;;;13.90;66.20;;;;;;4995922;28;20078;-76
2021/10/20 01:44:40;;;;;;;15.05;8.60;;;13.90;66.10;;;;;;4995747;28;20110;-76
2021/10/20 01:47:06;;;;;;;15.90;9.73;;;13.90;66.20;;;;;;4995821;28;20025;-75
2021/10/20 01:49:32;;;;;;;17.63;9.63;;;13.90;66.20;;;;;;4995823;28;20105;-76
2021/10/20 01:51:58;;;;;;;14.85;8.48;;;13.90;66.20;;;;;;4994119;28;20478;-75
2021/10/20 01:54:24;;;;;;;16.85;9.07;;;13.80;66.10;;;;;;4995191;28;20046;-76
2021/10/20 01:56:50;;;;;;;14.60;8.85;;;13.80;66.40;;;;;;5007622;28;20030;-76
2021/10/20 01:59:16;;;;;;;12.63;8.38;;;13.80;66.20;;;;;;5006700;28;20502;-75
2021/10/20 02:01:42;;;;;;;12.55;9.02;;;13.80;66.40;;;;;;5003221;28;20030;-76
2021/10/20 02:04:12;;;;;;;13.45;8.25;;;13.80;66.40;;;;;;5005039;28;20065;-75
2021/10/20 02:06:38;;;;;;;13.15;8.10;;;13.80;66.30;;;;;;5000397;28;20022;-75
2021/10/20 02:09:07;;;;;;;17.02;9.23;;;13.80;66.50;;;;;;4993758;28;20041;-75
2021/10/20 02:11:34;;;;;;;12.15;8.23;;;13.80;66.70;;;;;;4995311;28;20340;-74
2021/10/20 02:14:01;;;;;;;12.20;8.85;;;13.70;66.50;;;;;;4993808;28;20049;-75
2021/10/20 02:16:28;;;;;;;12.77;8.38;;;13.70;66.60;;;;;;4993458;28;20030;-75
2021/10/20 02:18:54;;;;;;;11.73;8.48;;;13.70;66.70;;;;;;4995202;28;20415;-75
2021/10/20 02:21:20;;;;;;;11.45;8.43;;;13.60;66.70;;;;;;4993432;28;20463;-74
2021/10/20 02:23:46;;;;;;;15.23;8.90;;;13.60;66.80;;;;;;4994781;28;20403;-74
2021/10/20 02:26:12;;;;;;;12.40;8.52;;;13.60;66.70;;;;;;4994664;28;20050;-75
2021/10/20 02:28:37;;;;;;;13.65;8.55;;;13.70;67.00;;;;;;4994645;28;20037;-75
2021/10/20 02:31:03;;;;;;;12.10;7.95;;;13.60;67.00;;;;;;4994521;28;20026;-75
2021/10/20 02:33:29;;;;;;;13.73;8.75;;;13.60;66.90;;;;;;4994350;28;20077;-75
2021/10/20 02:35:54;;;;;;;13.18;9.20;;;13.60;66.90;;;;;;4994394;28;20101;-74
2021/10/20 02:38:20;;;;;;;15.30;8.60;;;13.70;66.80;;;;;;4976963;28;20080;-76
2021/10/20 02:40:48;;;;;;;16.25;9.55;;;13.70;66.80;;;;;;4994174;28;20096;-75
2021/10/20 02:43:14;;;;;;;19.65;9.55;;;13.60;67.50;;;;;;4994177;28;20518;-75
2021/10/20 02:45:40;;;;;;;13.75;8.90;;;13.60;66.80;;;;;;4994373;28;20026;-75
2021/10/20 02:48:06;;;;;;;15.77;9.18;;;13.60;66.90;;;;;;4993280;28;20386;-75
2021/10/20 02:50:32;;;;;;;14.18;8.63;;;13.60;66.80;;;;;;4994101;28;20098;-76
2021/10/20 02:52:57;;;;;;;13.68;9.25;;;13.60;66.90;;;;;;4994231;28;20439;-76
2021/10/20 02:55:24;;;;;;;15.38;8.88;;;13.60;67.20;;;;;;4994077;28;20026;-74
2021/10/20 02:57:49;;;;;;;16.88;9.10;;;13.50;67.20;;;;;;4993920;28;20053;-75
2021/10/20 03:00:16;;;;;;;12.90;8.88;;;13.50;67.20;;;;;;4993736;28;20520;-75
2021/10/20 03:02:42;;;;;;;16.27;9.35;;;13.50;67.10;;;;;;4994146;28;20034;-74
2021/10/20 03:05:08;;;;;;;15.90;8.43;;;13.50;67.10;;;;;;4992957;28;20114;-75
2021/10/20 03:07:34;;;;;;;13.02;9.02;;;13.50;67.40;;;;;;4992467;28;20376;-75
2021/10/20 03:10:00;;;;;;;13.85;9.10;;;13.50;67.50;;;;;;4992495;28;20518;-76
2021/10/20 03:12:26;;;;;;;14.70;9.30;;;13.50;67.30;;;;;;4992481;28;20046;-74
2021/10/20 03:14:52;;;;;;;15.77;9.35;;;13.40;67.40;;;;;;4993970;28;20068;-74
2021/10/20 03:17:18;;;;;;;12.40;8.50;;;13.40;67.60;;;;;;4992290;28;20023;-77
2021/10/20 03:19:44;;;;;;;14.85;9.02;;;13.40;67.70;;;;;;4992496;28;20030;-76
2021/10/20 03:22:13;;;;;;;13.55;8.63;;;13.40;67.80;;;;;;4993455;28;20030;-74
2021/10/20 03:24:39;;;;;;;15.98;8.93;;;13.40;67.80;;;;;;4993399;28;20093;-76
2021/10/20 03:27:05;;;;;;;13.50;8.38;;;13.40;68.10;;;;;;4992195;28;20511;-76
2021/10/20 03:29:31;;;;;;;14.52;9.07;;;13.40;68.20;;;;;;4993664;28;20030;-76
2021/10/20 03:31:56;;;;;;;19.10;9.60;;;13.40;68.30;;;;;;4993654;28;20026;-77
2021/10/20 03:34:22;;;;;;;14.20;8.80;;;13.30;68.40;;;;;;4993592;28;20029;-77
2021/10/20 03:36:47;;;;;;;13.88;8.18;;;13.30;68.50;;;;;;4992215;28;20542;-75
2021/10/20 03:39:13;;;;;;;14.70;8.82;;;13.30;68.70;;;;;;4992216;28;20058;-76
2021/10/20 03:41:39;;;;;;;19.85;8.90;;;13.30;69.30;;;;;;4993393;28;20030;-76
2021/10/20 03:44:05;;;;;;;13.15;8.73;;;13.30;68.80;;;;;;4993523;28;20056;-77
2021/10/20 03:46:30;;;;;;;13.52;9.40;;;13.20;69.00;;;;;;4992124;28;20065;-75
2021/10/20 03:48:56;;;;;;;17.25;8.95;;;13.20;69.00;;;;;;4993162;28;20034;-75
2021/10/20 03:51:22;;;;;;;16.02;8.95;;;13.10;68.90;;;;;;4993308;28;20030;-76
2021/10/20 03:53:47;;;;;;;14.73;8.55;;;13.10;69.30;;;;;;4993570;28;20027;-77
2021/10/20 03:56:13;;;;;;;14.55;8.45;;;13.10;69.30;;;;;;4993218;28;20391;-76
2021/10/20 03:58:39;;;;;;;15.07;8.00;;;13.10;69.30;;;;;;4992102;28;20357;-76
2021/10/20 04:01:05;;;;;;;13.65;8.55;;;13.10;69.30;;;;;;4993375;28;20053;-76
2021/10/20 04:03:30;;;;;;;11.00;8.00;;;13.10;69.00;;;;;;4993144;28;20458;-76
2021/10/20 04:05:56;;;;;;;18.73;8.15;;;13.10;69.00;;;;;;4993070;28;20101;-76
2021/10/20 04:08:22;;;;;;;13.43;8.40;;;13.20;69.10;;;;;;4993612;28;20031;-74
2021/10/20 04:10:48;;;;;;;15.90;8.45;;;13.10;69.20;;;;;;4993354;28;20034;-76
2021/10/20 04:13:13;;;;;;;14.07;8.77;;;13.10;69.30;;;;;;4991596;28;20509;-75
2021/10/20 04:15:39;;;;;;;13.82;8.70;;;13.00;69.50;;;;;;4992990;28;20416;-77
2021/10/20 04:18:05;;;;;;;15.38;8.57;;;13.00;69.70;;;;;;4996350;28;20432;-78
2021/10/20 04:20:30;;;;;;;13.82;8.48;;;12.90;69.70;;;;;;4996915;28;20151;-75
2021/10/20 04:22:56;;;;;;;12.45;7.90;;;12.90;69.90;;;;;;4996501;28;20387;-75
2021/10/20 04:25:22;;;;;;;13.40;7.95;;;13.00;69.80;;;;;;4995328;28;20137;-74
2021/10/20 04:27:50;;;;;;;15.85;9.43;;;12.90;69.90;;;;;;4996686;28;20018;-75
2021/10/20 04:30:18;;;;;;;13.00;9.02;;;12.90;70.00;;;;;;4995144;28;20336;-75
2021/10/20 04:32:44;;;;;;;14.95;8.55;;;12.90;70.10;;;;;;4996860;28;20027;-76
2021/10/20 04:35:11;;;;;;;13.30;8.43;;;12.90;70.20;;;;;;4996756;28;20022;-75
2021/10/20 04:37:40;;;;;;;15.07;8.38;;;13.00;70.20;;;;;;4995014;28;20065;-76
2021/10/20 04:40:09;;;;;;;16.95;8.65;;;13.00;70.20;;;;;;4996361;28;20018;-76
2021/10/20 04:42:35;;;;;;;20.70;8.77;;;13.00;70.30;;;;;;4996604;28;20088;-77
2021/10/20 04:45:03;;;;;;;12.65;8.23;;;13.00;70.20;;;;;;4996561;28;20368;-75
2021/10/20 04:47:28;;;;;;;12.73;9.02;;;13.00;69.90;;;;;;4996711;28;20435;-76
2021/10/20 04:49:54;;;;;;;17.83;8.98;;;13.00;69.90;;;;;;4996257;28;20031;-78
2021/10/20 04:52:23;;;;;;;14.77;8.90;;;13.00;70.10;;;;;;4996546;28;20027;-77
2021/10/20 04:54:50;;;;;;;16.50;9.20;;;13.00;70.20;;;;;;4995362;28;20531;-77
2021/10/20 04:57:16;;;;;;;12.30;8.10;;;13.00;70.00;;;;;;4996435;28;20022;-76
2021/10/20 04:59:42;;;;;;;16.63;8.73;;;13.00;70.20;;;;;;4994764;28;20156;-75
2021/10/20 05:02:08;;;;;;;13.68;8.02;;;13.00;70.40;;;;;;4995987;28;20034;-75
2021/10/20 05:04:33;;;;;;;12.68;9.20;;;13.00;70.40;;;;;;4995794;28;20041;-75
2021/10/20 05:06:59;;;;;;;15.80;8.82;;;13.00;70.50;;;;;;4995931;28;20060;-76
2021/10/20 05:09:25;;;;;;;17.08;8.85;;;13.00;70.40;;;;;;4996282;28;20221;-75
2021/10/20 05:11:51;;;;;;;14.70;8.77;;;13.00;70.60;;;;;;4995837;28;20025;-76
2021/10/20 05:14:17;;;;;;;12.88;8.35;;;13.00;70.40;;;;;;4996301;28;20121;-77
2021/10/20 05:16:42;;;;;;;13.10;8.63;;;13.00;70.40;;;;;;4995843;28;20022;-78
2021/10/20 05:19:08;;;;;;;20.55;8.18;;;13.00;70.20;;;;;;4995802;28;20089;-74
2021/10/20 05:21:34;;;;;;;15.45;8.95;;;13.00;70.60;;;;;;4995609;28;20022;-74
2021/10/20 05:24:00;;;;;;;17.73;9.25;;;13.00;70.40;;;;;;4995533;28;20052;-78
2021/10/20 05:26:26;;;;;;;16.95;9.70;;;13.00;70.50;;;;;;4991884;28;20383;-79
2021/10/20 05:28:52;;;;;;;17.95;9.82;;;13.00;70.40;;;;;;4996223;28;20033;-81
2021/10/20 05:31:18;;;;;;;15.93;9.30;;;13.00;70.50;;;;;;4994856;28;20026;-74
2021/10/20 05:33:43;;;;;;;14.88;10.00;;;13.00;70.70;;;;;;4996285;28;20480;-75
2021/10/20 05:36:09;;;;;;;20.73;9.70;;;12.90;70.80;;;;;;4995770;28;20101;-76
2021/10/20 05:38:36;;;;;;;16.63;9.75;;;12.90;70.90;;;;;;4995829;28;20450;-77
2021/10/20 05:41:02;;;;;;;14.98;10.15;;;12.90;71.30;;;;;;4980406;28;20058;-78
2021/10/20 05:43:29;;;;;;;19.73;10.82;;;12.90;71.00;;;;;;4976452;28;20070;-76
2021/10/20 05:45:55;;;;;;;21.95;11.05;;;12.90;71.20;;;;;;4976172;28;20027;-77
2021/10/20 05:48:23;;;;;;;17.70;10.70;;;12.80;71.00;;;;;;4975070;28;20019;-77
2021/10/20 05:50:50;;;;;;;17.65;10.52;;;12.80;71.30;;;;;;4976882;28;20515;-76
2021/10/20 05:53:17;;;;;;;17.88;10.07;;;12.80;71.00;;;;;;4983410;28;20407;-76
2021/10/20 05:55:44;;;;;;;15.20;11.20;;;12.80;71.30;;;;;;4984595;28;20027;-76
2021/10/20 05:58:10;;;;;;;19.95;11.10;;;12.80;71.10;;;;;;4985481;28;20074;-76
2021/10/20 06:00:36;;;;;;;17.65;10.80;;;12.80;71.20;;;;;;4979777;28;20563;-76
2021/10/20 06:03:02;;;;;;;20.27;11.80;;;12.80;70.90;;;;;;4994112;28;20129;-77
2021/10/20 06:05:29;;;;;;;16.17;10.25;;;12.80;71.70;;;;;;4993777;28;20022;-75
2021/10/20 06:07:54;;;;;;;15.20;9.60;;;12.80;71.00;;;;;;4993852;28;20069;-76
2021/10/20 06:10:20;;;;;;;16.05;10.07;;;12.80;71.10;;;;;;4991751;28;20026;-75
2021/10/20 06:12:46;;;;;;;21.38;10.43;;;12.90;71.00;;;;;;4989441;28;20100;-76
2021/10/20 06:15:12;;;;;;;17.67;10.63;;;12.90;71.00;;;;;;4975140;28;20059;-75
2021/10/20 06:17:38;;;;;;;29.38;11.90;;;12.90;70.80;;;;;;4975260;28;20022;-76
2021/10/20 06:20:06;;;;;;;15.85;10.38;;;13.00;70.70;;;;;;4974903;28;20035;-77
2021/10/20 06:22:37;;;;;;;15.60;9.80;;;13.00;70.70;;;;;;4974804;28;20018;-77
2021/10/20 06:25:05;;;;;;;18.27;10.55;;;13.00;70.80;;;;;;4974792;28;20129;-75
2021/10/20 06:27:31;;;;;;;38.67;10.95;;;13.10;70.60;;;;;;4975101;28;20027;-76
2021/10/20 06:29:56;;;;;;;17.63;10.70;;;13.10;70.20;;;;;;4973546;28;20400;-76
2021/10/20 06:32:22;;;;;;;18.48;10.20;;;13.20;70.00;;;;;;4974663;28;20094;-75
2021/10/20 06:34:48;;;;;;;19.63;9.52;;;13.20;69.80;;;;;;4975470;28;20038;-77
2021/10/20 06:37:14;;;;;;;21.05;9.77;;;13.40;69.80;;;;;;4974674;28;20018;-77
2021/10/20 06:39:39;;;;;;;14.43;9.52;;;13.50;69.50;;;;;;4972843;28;20030;-78
2021/10/20 06:42:05;;;;;;;21.17;10.55;;;13.60;69.00;;;;;;4972596;28;20110;-77
2021/10/20 06:44:32;;;;;;;20.40;10.07;;;13.70;68.40;;;;;;4973769;28;20037;-77
2021/10/20 06:46:57;;;;;;;19.05;10.23;;;13.90;68.60;;;;;;4974396;28;20057;-75
2021/10/20 06:49:23;;;;;;;19.98;9.85;;;14.00;67.80;;;;;;4973649;28;20407;-77
2021/10/20 06:51:49;;;;;;;21.38;9.90;;;14.10;67.20;;;;;;4973646;28;20400;-76
2021/10/20 06:54:19;;;;;;;19.38;10.23;;;14.30;66.60;;;;;;4974726;28;20015;-75
2021/10/20 06:56:49;;;;;;;15.68;9.85;;;14.40;67.00;;;;;;4974620;28;20048;-76
2021/10/20 06:59:15;;;;;;;21.42;10.25;;;14.50;65.80;;;;;;4972921;28;20030;-79
2021/10/20 07:01:41;;;;;;;20.58;9.88;;;14.60;65.60;;;;;;4974281;28;20023;-77
2021/10/20 07:04:08;;;;;;;18.15;9.55;;;14.70;65.50;;;;;;4973234;28;20326;-78
2021/10/20 07:06:34;;;;;;;15.48;9.75;;;14.80;64.90;;;;;;4974330;28;20496;-76
2021/10/20 07:09:00;;;;;;;14.65;9.45;;;14.90;65.50;;;;;;4974557;28;20058;-77
2021/10/20 07:11:26;;;;;;;19.98;11.05;;;14.90;64.70;;;;;;4973233;28;20019;-78
2021/10/20 07:13:51;;;;;;;17.88;9.75;;;15.00;64.50;;;;;;4973094;28;20078;-77
2021/10/20 07:16:18;;;;;;;16.10;10.10;;;15.00;64.40;;;;;;4973206;28;20038;-76
2021/10/20 07:18:44;;;;;;;18.15;10.10;;;15.10;64.40;;;;;;4973418;28;20061;-78
2021/10/20 07:21:10;;;;;;;29.10;10.60;;;15.10;64.00;;;;;;4974466;28;20062;-78
2021/10/20 07:23:36;;;;;;;22.55;10.73;;;15.10;63.90;;;;;;4974478;28;20427;-77
2021/10/20 07:26:01;;;;;;;22.30;10.93;;;15.20;63.80;;;;;;4974235;28;20055;-75
2021/10/20 07:28:27;;;;;;;32.42;10.52;;;15.20;63.70;;;;;;4973809;28;20045;-79
2021/10/20 07:30:53;;;;;;;17.65;10.63;;;15.30;64.00;;;;;;4974277;28;20081;-76
2021/10/20 07:33:19;;;;;;;19.33;11.48;;;15.30;63.50;;;;;;4974458;28;20026;-76
2021/10/20 07:35:44;;;;;;;30.88;11.38;;;15.30;63.60;;;;;;4972903;28;20050;-77
2021/10/20 07:38:10;;;;;;;19.08;10.65;;;15.40;63.40;;;;;;4972669;28;20026;-76
2021/10/20 07:40:36;;;;;;;21.83;10.60;;;15.40;63.20;;;;;;4974968;28;20117;-78
2021/10/20 07:43:03;;;;;;;16.63;10.80;;;15.40;63.20;;;;;;4983177;28;20037;-76
2021/10/20 07:45:29;;;;;;;18.80;10.90;;;15.40;63.50;;;;;;4990257;28;20058;-76
2021/10/20 07:47:55;;;;;;;21.02;11.45;;;15.50;63.60;;;;;;4986819;28;20019;-76
2021/10/20 07:50:22;;;;;;;25.50;11.93;;;15.50;63.30;;;;;;4979551;28;20041;-77
2021/10/20 07:52:49;;;;;;;22.90;11.32;;;15.60;63.40;;;;;;4983790;28;20038;-75
2021/10/20 07:55:17;;;;;;;21.48;11.18;;;15.60;63.10;;;;;;4981574;28;20129;-75
2021/10/20 07:57:43;;;;;;;20.63;11.75;;;15.70;62.80;;;;;;4981247;28;20022;-76
2021/10/20 08:00:10;;;;;;;22.33;11.57;;;15.70;63.00;;;;;;4980998;28;20129;-77
2021/10/20 08:02:36;;;;;;;21.05;11.57;;;15.70;62.80;;;;;;4980563;28;20018;-76
2021/10/20 08:05:03;;;;;;;19.73;11.93;;;15.70;62.90;;;;;;4981663;28;20081;-76
2021/10/20 08:07:30;;;;;;;19.98;10.52;;;15.70;62.90;;;;;;4981585;28;20065;-76
2021/10/20 08:09:56;;;;;;;23.42;11.20;;;15.70;62.80;;;;;;4981184;28;20124;-77
2021/10/20 08:12:22;;;;;;;26.50;11.80;;;15.70;62.80;;;;;;4979493;28;20066;-77
2021/10/20 08:14:54;;;;;;;18.95;11.68;;;15.70;62.80;;;;;;4980972;28;20034;-77
2021/10/20 08:17:21;;;;;;;20.33;10.77;;;15.70;62.90;;;;;;4979225;28;20030;-79
2021/10/20 08:19:47;;;;;;;18.95;11.25;;;15.80;62.70;;;;;;4980327;28;20089;-77
2021/10/20 08:22:12;;;;;;;23.38;11.70;;;15.90;62.90;;;;;;4980489;28;20473;-75
2021/10/20 08:24:38;;;;;;;18.88;11.23;;;16.00;63.00;;;;;;4980550;28;20086;-77
2021/10/20 08:27:04;;;;;;;21.00;12.07;;;16.00;62.90;;;;;;4980943;28;20023;-76
2021/10/20 08:29:30;;;;;;;17.30;11.70;;;16.00;62.80;;;;;;4980289;28;20118;-76
2021/10/20 08:31:56;;;;;;;20.48;11.07;;;16.00;62.70;;;;;;4978743;28;20026;-78
2021/10/20 08:34:22;;;;;;;22.92;11.68;;;16.10;62.70;;;;;;4979434;28;20026;-79
2021/10/20 08:36:48;;;;;;;26.58;12.23;;;16.10;62.70;;;;;;4980522;28;20034;-75
2021/10/20 08:39:15;;;;;;;21.67;11.63;;;16.20;62.70;;;;;;4980744;28;20058;-77
2021/10/20 08:41:42;;;;;;;23.17;12.35;;;16.20;62.60;;;;;;4979862;28;20499;-77
2021/10/20 08:44:07;;;;;;;24.23;12.25;;;16.30;62.60;;;;;;4980491;28;20110;-76
2021/10/20 08:46:33;;;;;;;23.45;11.15;;;16.40;62.40;;;;;;4980403;28;20483;-77
2021/10/20 08:49:02;;;;;;;19.55;11.50;;;16.50;62.00;;;;;;4979890;28;20360;-79
2021/10/20 08:51:28;;;;;;;18.17;11.20;;;16.60;62.20;;;;;;4979358;28;20392;-78
2021/10/20 08:53:56;;;;;;;20.77;11.93;;;16.60;62.10;;;;;;4979702;28;20031;-76
2021/10/20 08:56:22;;;;;;;23.10;12.13;;;16.70;62.20;;;;;;4979616;28;20089;-77
2021/10/20 08:58:48;;;;;;;21.42;11.65;;;16.80;62.40;;;;;;4979867;28;20030;-78
2021/10/20 09:01:13;;;;;;;15.85;11.57;;;16.80;62.50;;;;;;4979580;28;20027;-78
2021/10/20 09:03:39;;;;;;;18.05;11.77;;;16.90;62.70;;;;;;4977563;28;20464;-76
2021/10/20 09:06:05;;;;;;;19.67;12.07;;;17.00;62.90;;;;;;4976676;28;20461;-78
2021/10/20 09:08:41;;;;;;;20.05;12.45;;;17.10;63.40;;;;;;4974583;28;20507;-76
2021/10/20 09:11:33;;;;;;;20.02;11.35;;;17.20;63.70;;;;;;4974927;28;20066;-78
2021/10/20 09:14:03;;;;;;;22.35;11.68;;;17.30;63.60;;;;;;4976379;28;20023;-77
2021/10/20 09:16:31;;;;;;;22.20;11.65;;;17.40;64.00;;;;;;4976716;28;20035;-80
2021/10/20 09:18:58;;;;;;;19.00;12.27;;;17.50;63.80;;;;;;4975297;28;20027;-77
2021/10/20 09:21:25;;;;;;;18.35;11.48;;;17.60;63.80;;;;;;4976150;28;20381;-77
2021/10/20 09:23:51;;;;;;;23.02;10.70;;;17.60;63.70;;;;;;4975030;28;20168;-77
2021/10/20 09:26:17;;;;;;;15.75;11.18;;;17.80;64.10;;;;;;4975574;28;20043;-75
2021/10/20 09:28:42;;;;;;;21.73;12.65;;;17.90;64.70;;;;;;4974668;28;20037;-78
2021/10/20 09:31:10;;;;;;;17.13;11.32;;;17.90;64.60;;;;;;4974801;28;20118;-76
2021/10/20 09:33:37;;;;;;;20.30;13.00;;;18.00;64.90;;;;;;4975755;28;20504;-77
2021/10/20 09:36:04;;;;;;;18.35;11.82;;;18.10;65.00;;;;;;4976110;28;20022;-77
2021/10/20 09:38:35;;;;;;;21.48;12.63;;;18.20;64.80;;;;;;4975753;28;20448;-77
2021/10/20 09:41:06;;;;;;;17.20;12.43;;;18.30;64.90;;;;;;4976030;28;20037;-76
2021/10/20 09:43:32;;;;;;;19.30;12.95;;;18.40;65.40;;;;;;4976101;28;20034;-76
2021/10/20 09:46:00;;;;;;;17.33;12.40;;;18.50;65.70;;;;;;4974911;28;20035;-74
2021/10/20 09:48:27;;;;;;;14.63;11.60;;;18.60;66.10;;;;;;4975932;28;20023;-77
2021/10/20 09:50:58;;;;;;;17.48;11.32;;;18.80;66.20;;;;;;4974675;28;20472;-77
2021/10/20 09:53:31;;;;;;;18.20;11.45;;;18.80;66.10;;;;;;4976006;28;20050;-75
2021/10/20 09:56:17;;;;;;;15.95;10.50;;;18.90;66.30;;;;;;4974478;28;20027;-76
2021/10/20 09:58:46;;;;;;;12.82;10.02;;;18.90;66.50;;;;;;4973982;28;20031;-74
2021/10/20 10:01:13;;;;;;;17.02;12.30;;;19.00;66.30;;;;;;4975591;28;20019;-77
2021/10/20 10:03:41;;;;;;;19.30;11.25;;;19.10;67.00;;;;;;4975424;28;20046;-75
2021/10/20 10:06:07;;;;;;;15.52;8.98;;;19.20;66.70;;;;;;4975603;28;20026;-76
2021/10/20 10:08:33;;;;;;;13.80;8.25;;;19.20;66.30;;;;;;4975596;28;20476;-76
2021/10/20 10:10:59;;;;;;;13.23;7.85;;;19.40;66.40;;;;;;4975383;28;20027;-76
2021/10/20 10:13:32;;;;;;;10.40;6.47;;;19.40;65.40;;;;;;4975415;28;20425;-77
2021/10/20 10:16:00;;;;;;;8.77;6.65;;;19.60;65.60;;;;;;4974847;28;20180;-77
2021/10/20 10:18:27;;;;;;;8.85;6.00;;;19.70;65.00;;;;;;4975638;28;20015;-76
2021/10/20 10:20:53;;;;;;;11.13;6.97;;;19.80;65.50;;;;;;4957805;28;20121;-77
2021/10/20 10:23:24;;;;;;;11.40;6.47;;;19.90;64.60;;;;;;4974957;28;20042;-76
2021/10/20 10:26:09;;;;;;;9.52;5.88;;;20.00;64.40;;;;;;4975001;28;20043;-75
2021/10/20 10:28:36;;;;;;;11.13;6.82;;;20.00;62.80;;;;;;4975269;28;20362;-75
2021/10/20 10:31:09;;;;;;;10.25;6.80;;;20.00;63.70;;;;;;4974896;28;20392;-76
2021/10/20 10:33:50;;;;;;;12.13;6.75;;;20.00;62.90;;;;;;4975055;28;20031;-75
2021/10/20 10:36:19;;;;;;;12.27;7.65;;;20.00;63.60;;;;;;4973553;28;20034;-77
2021/10/20 10:39:00;;;;;;;11.68;7.25;;;20.10;63.50;;;;;;4975478;28;20101;-77
2021/10/20 10:41:39;;;;;;;9.90;7.68;;;20.20;62.10;;;;;;4974823;28;20034;-75
2021/10/20 10:44:08;;;;;;;10.30;7.10;;;20.30;62.00;;;;;;4974779;28;20063;-75
2021/10/20 10:46:35;;;;;;;12.00;7.60;;;20.40;62.80;;;;;;4973634;28;20027;-76
2021/10/20 10:49:03;;;;;;;11.40;7.72;;;20.40;62.20;;;;;;4974988;28;20212;-77
2021/10/20 10:51:29;;;;;;;10.43;6.50;;;20.50;62.20;;;;;;4974757;28;20110;-75
2021/10/20 10:53:59;;;;;;;9.15;6.40;;;20.60;61.00;;;;;;4974943;28;20023;-75
2021/10/20 10:56:26;;;;;;;12.82;5.93;;;20.60;61.60;;;;;;4974668;28;20479;-75
2021/10/20 10:59:06;;;;;;;11.10;7.75;;;20.50;61.90;;;;;;4973148;28;20031;-76
2021/10/20 11:01:48;;;;;;;9.57;6.72;;;20.50;61.90;;;;;;4975145;28;20023;-76
2021/10/20 11:04:25;;;;;;;11.52;7.10;;;20.50;60.10;;;;;;4974630;28;20125;-76
2021/10/20 11:06:55;;;;;;;9.52;6.72;;;20.60;61.80;;;;;;4975240;28;20042;-77
2021/10/20 11:09:32;;;;;;;14.18;7.82;;;20.70;61.10;;;;;;4974753;28;20038;-75
2021/10/20 11:11:59;;;;;;;10.82;7.45;;;20.80;61.00;;;;;;4974253;28;20376;-76
2021/10/20 11:14:28;;;;;;;9.68;5.72;;;20.90;60.60;;;;;;4973114;28;20042;-77
2021/10/20 11:17:10;;;;;;;10.30;5.45;;;21.00;60.20;;;;;;4957482;28;20027;-78
2021/10/20 11:19:38;;;;;;;9.43;5.25;;;21.20;59.90;;;;;;4974060;28;20035;-76
2021/10/20 11:22:04;;;;;;;13.45;7.28;;;21.30;59.50;;;;;;4974050;28;20034;-77
2021/10/20 11:24:33;;;;;;;11.40;7.70;;;21.40;59.20;;;;;;4972740;28;20035;-75
2021/10/20 11:27:02;;;;;;;11.05;6.97;;;21.50;59.20;;;;;;4973619;28;20035;-75
2021/10/20 11:29:28;;;;;;;11.40;6.88;;;21.60;58.80;;;;;;4974110;28;20029;-75
2021/10/20 11:31:57;;;;;;;11.30;5.50;;;21.70;58.50;;;;;;4974068;28;20065;-76
2021/10/20 11:34:25;;;;;;;12.02;5.60;;;21.90;57.80;;;;;;4974275;28;20081;-76
2021/10/20 11:36:51;;;;;;;10.95;6.70;;;22.10;57.20;;;;;;4974244;28;21078;-76
2021/10/20 11:39:17;;;;;;;8.35;5.57;;;22.20;56.70;;;;;;4973905;28;20051;-77
2021/10/20 11:41:55;;;;;;;7.28;4.45;;;22.30;55.80;;;;;;4974023;28;20035;-76
2021/10/20 11:44:32;;;;;;;13.68;4.20;;;22.40;55.70;;;;;;4974076;28;20031;-76
2021/10/20 11:47:00;;;;;;;8.77;4.15;;;22.40;55.10;;;;;;4975789;28;20523;-76
2021/10/20 11:49:27;;;;;;;7.20;4.45;;;22.30;55.30;;;;;;4973940;28;20105;-77
2021/10/20 11:51:53;;;;;;;6.47;4.28;;;22.20;55.30;;;;;;4972864;28;20384;-77
2021/10/20 11:54:28;;;;;;;6.07;3.90;;;22.00;55.50;;;;;;4974205;28;20023;-77
2021/10/20 11:56:58;;;;;;;6.95;3.70;;;21.90;56.00;;;;;;4972981;28;20068;-77
2021/10/20 11:59:26;;;;;;;6.70;4.60;;;21.80;56.10;;;;;;4974058;28;20054;-77
2021/10/20 12:01:52;;;;;;;10.50;5.30;;;21.90;56.00;;;;;;4974162;28;20023;-76
2021/10/20 12:04:20;;;;;;;7.80;4.22;;;22.00;55.70;;;;;;4974574;28;20042;-76
2021/10/20 12:06:52;;;;;;;9.30;3.97;;;22.10;55.40;;;;;;4974404;28;20027;-76
2021/10/20 12:09:19;;;;;;;8.98;4.10;;;22.10;55.10;;;;;;4972827;28;20121;-77
2021/10/20 12:11:47;;;;;;;9.00;4.40;;;22.30;55.40;;;;;;4974559;28;20023;-76
2021/10/20 12:14:15;;;;;;;5.53;3.60;;;22.50;53.80;;;;;;4974363;28;20488;-77
2021/10/20 12:16:42;;;;;;;7.88;3.88;;;22.60;54.20;;;;;;4972650;28;20038;-78
2021/10/20 12:19:12;;;;;;;7.20;4.05;;;22.80;53.80;;;;;;4974274;28;20027;-76
2021/10/20 12:21:43;;;;;;;6.30;3.67;;;22.90;53.40;;;;;;4974208;28;20042;-77
2021/10/20 12:24:09;;;;;;;5.90;3.85;;;23.00;53.40;;;;;;4974210;28;20039;-78
2021/10/20 12:26:37;;;;;;;9.75;3.95;;;23.10;53.30;;;;;;4974161;28;20081;-80
2021/10/20 12:29:08;;;;;;;7.03;3.47;;;23.10;53.20;;;;;;4974654;28;20123;-78
2021/10/20 12:31:35;;;;;;;9.57;3.90;;;23.20;53.10;;;;;;4974178;28;20023;-77
2021/10/20 12:34:01;;;;;;;6.22;4.03;;;23.20;52.60;;;;;;4973843;28;20035;-78